sensor_id;sensor_type;location;lat;lon;timestamp;P1;durP1;ratioP1;P2;durP2;ratioP2
65706;SDS011;52423;43.512;5.220;2022-07-23T00:00:10;12.20;;;5.65;;
65706;SDS011;52423;43.512;5.220;2022-07-23T00:02:37;9.20;;;5.65;;
65706;SDS011;52423;43.512;5.220;2022-07-23T00:05:03;9.75;;;5.90;;
65706;SDS011;52423;43.512;5.220;2022-07-23T00:07:29;7.53;;;5.63;;
65706;SDS011;52423;43.512;5.220;2022-07-23T00:09:54;16.10;;;6.60;;
65706;SDS011;52423;43.512;5.220;2022-07-23T00:12:20;11.05;;;5.55;;
65706;SDS011;52423;43.512;5.220;2022-07-23T00:14:46;14.70;;;6.22;;
65706;SDS011;52423;43.512;5.220;2022-07-23T00:17:12;6.97;;;5.72;;
65706;SDS011;52423;43.512;5.220;2022-07-23T00:19:38;12.73;;;6.05;;
65706;SDS011;52423;43.512;5.220;2022-07-23T00:22:03;7.13;;;5.55;;
65706;SDS011;52423;43.512;5.220;2022-07-23T00:24:29;11.13;;;5.70;;
65706;SDS011;52423;43.512;5.220;2022-07-23T00:26:54;8.52;;;5.70;;
65706;SDS011;52423;43.512;5.220;2022-07-23T00:29:20;12.55;;;5.63;;
65706;SDS011;52423;43.512;5.220;2022-07-23T00:31:46;11.50;;;5.35;;
65706;SDS011;52423;43.512;5.220;2022-07-23T00:34:11;12.50;;;5.78;;
65706;SDS011;52423;43.512;5.220;2022-07-23T00:36:37;10.30;;;5.70;;
65706;SDS011;52423;43.512;5.220;2022-07-23T00:39:03;12.50;;;5.80;;
65706;SDS011;52423;43.512;5.220;2022-07-23T00:41:29;10.70;;;5.85;;
65706;SDS011;52423;43.512;5.220;2022-07-23T00:43:55;11.00;;;6.03;;
65706;SDS011;52423;43.512;5.220;2022-07-23T00:46:21;9.40;;;6.22;;
65706;SDS011;52423;43.512;5.220;2022-07-23T00:48:47;12.23;;;5.82;;
65706;SDS011;52423;43.512;5.220;2022-07-23T00:51:14;8.20;;;5.68;;
65706;SDS011;52423;43.512;5.220;2022-07-23T00:53:41;8.05;;;5.35;;
65706;SDS011;52423;43.512;5.220;2022-07-23T00:56:07;9.35;;;5.43;;
65706;SDS011;52423;43.512;5.220;2022-07-23T00:58:34;8.82;;;5.30;;
65706;SDS011;52423;43.512;5.220;2022-07-23T01:01:00;9.82;;;5.38;;
65706;SDS011;52423;43.512;5.220;2022-07-23T01:03:26;8.88;;;5.45;;
65706;SDS011;52423;43.512;5.220;2022-07-23T01:05:52;8.02;;;5.63;;
65706;SDS011;52423;43.512;5.220;2022-07-23T01:08:18;12.57;;;5.75;;
65706;SDS011;52423;43.512;5.220;2022-07-23T01:10:44;12.80;;;5.65;;
65706;SDS011;52423;43.512;5.220;2022-07-23T01:13:12;15.32;;;5.90;;
65706;SDS011;52423;43.512;5.220;2022-07-23T01:15:38;8.45;;;5.63;;
65706;SDS011;52423;43.512;5.220;2022-07-23T01:18:04;7.38;;;5.43;;
65706;SDS011;52423;43.512;5.220;2022-07-23T01:20:31;12.85;;;5.85;;
65706;SDS011;52423;43.512;5.220;2022-07-23T01:22:58;8.30;;;6.10;;
65706;SDS011;52423;43.512;5.220;2022-07-23T01:25:24;9.55;;;5.45;;
65706;SDS011;52423;43.512;5.220;2022-07-23T01:27:51;10.32;;;5.68;;
65706;SDS011;52423;43.512;5.220;2022-07-23T01:30:17;13.10;;;5.80;;
65706;SDS011;52423;43.512;5.220;2022-07-23T01:32:43;8.20;;;5.93;;
65706;SDS011;52423;43.512;5.220;2022-07-23T01:35:09;12.60;;;5.80;;
65706;SDS011;52423;43.512;5.220;2022-07-23T01:37:37;12.45;;;5.70;;
65706;SDS011;52423;43.512;5.220;2022-07-23T01:40:03;15.40;;;6.13;;
65706;SDS011;52423;43.512;5.220;2022-07-23T01:42:30;7.35;;;5.95;;
65706;SDS011;52423;43.512;5.220;2022-07-23T01:44:55;12.38;;;7.03;;
65706;SDS011;52423;43.512;5.220;2022-07-23T01:47:21;10.25;;;6.25;;
65706;SDS011;52423;43.512;5.220;2022-07-23T01:49:48;15.88;;;6.07;;
65706;SDS011;52423;43.512;5.220;2022-07-23T01:52:13;10.20;;;5.72;;
65706;SDS011;52423;43.512;5.220;2022-07-23T01:54:39;10.93;;;6.13;;
65706;SDS011;52423;43.512;5.220;2022-07-23T01:57:05;7.05;;;5.40;;
65706;SDS011;52423;43.512;5.220;2022-07-23T01:59:31;10.25;;;5.70;;
65706;SDS011;52423;43.512;5.220;2022-07-23T02:01:57;8.60;;;5.75;;
65706;SDS011;52423;43.512;5.220;2022-07-23T02:04:24;17.02;;;6.22;;
65706;SDS011;52423;43.512;5.220;2022-07-23T02:06:50;11.30;;;5.78;;
65706;SDS011;52423;43.512;5.220;2022-07-23T02:09:17;8.65;;;6.18;;
65706;SDS011;52423;43.512;5.220;2022-07-23T02:11:43;11.35;;;6.05;;
65706;SDS011;52423;43.512;5.220;2022-07-23T02:14:09;7.55;;;5.80;;
65706;SDS011;52423;43.512;5.220;2022-07-23T02:16:35;8.77;;;5.70;;
65706;SDS011;52423;43.512;5.220;2022-07-23T02:19:01;9.98;;;6.28;;
65706;SDS011;52423;43.512;5.220;2022-07-23T02:21:27;9.23;;;5.55;;
65706;SDS011;52423;43.512;5.220;2022-07-23T02:23:53;8.02;;;5.68;;
65706;SDS011;52423;43.512;5.220;2022-07-23T02:26:19;8.65;;;6.10;;
65706;SDS011;52423;43.512;5.220;2022-07-23T02:28:44;11.82;;;6.47;;
65706;SDS011;52423;43.512;5.220;2022-07-23T02:31:10;13.63;;;6.55;;
65706;SDS011;52423;43.512;5.220;2022-07-23T02:33:36;11.02;;;6.32;;
65706;SDS011;52423;43.512;5.220;2022-07-23T02:36:01;7.55;;;5.60;;
65706;SDS011;52423;43.512;5.220;2022-07-23T02:38:27;10.25;;;5.75;;
65706;SDS011;52423;43.512;5.220;2022-07-23T02:40:53;7.25;;;5.47;;
65706;SDS011;52423;43.512;5.220;2022-07-23T02:43:19;9.93;;;5.57;;
65706;SDS011;52423;43.512;5.220;2022-07-23T02:45:44;7.05;;;5.70;;
65706;SDS011;52423;43.512;5.220;2022-07-23T02:48:10;10.38;;;5.43;;
65706;SDS011;52423;43.512;5.220;2022-07-23T02:50:38;7.05;;;5.80;;
65706;SDS011;52423;43.512;5.220;2022-07-23T02:53:04;8.57;;;5.65;;
65706;SDS011;52423;43.512;5.220;2022-07-23T02:55:30;7.95;;;5.85;;
65706;SDS011;52423;43.512;5.220;2022-07-23T02:57:56;9.13;;;5.80;;
65706;SDS011;52423;43.512;5.220;2022-07-23T03:00:22;13.82;;;5.82;;
65706;SDS011;52423;43.512;5.220;2022-07-23T03:02:48;8.63;;;6.10;;
65706;SDS011;52423;43.512;5.220;2022-07-23T03:05:13;11.57;;;6.07;;
65706;SDS011;52423;43.512;5.220;2022-07-23T03:07:39;9.43;;;5.95;;
65706;SDS011;52423;43.512;5.220;2022-07-23T03:10:05;8.32;;;5.78;;
65706;SDS011;52423;43.512;5.220;2022-07-23T03:12:31;6.63;;;5.57;;
65706;SDS011;52423;43.512;5.220;2022-07-23T03:14:57;10.43;;;6.50;;
65706;SDS011;52423;43.512;5.220;2022-07-23T03:17:22;7.60;;;5.45;;
65706;SDS011;52423;43.512;5.220;2022-07-23T03:19:48;11.20;;;6.10;;
65706;SDS011;52423;43.512;5.220;2022-07-23T03:22:14;7.43;;;5.72;;
65706;SDS011;52423;43.512;5.220;2022-07-23T03:24:39;11.23;;;5.85;;
65706;SDS011;52423;43.512;5.220;2022-07-23T03:27:21;11.27;;;5.90;;
65706;SDS011;52423;43.512;5.220;2022-07-23T03:29:49;8.30;;;6.15;;
65706;SDS011;52423;43.512;5.220;2022-07-23T03:32:15;17.63;;;6.35;;
65706;SDS011;52423;43.512;5.220;2022-07-23T03:34:41;6.85;;;5.97;;
65706;SDS011;52423;43.512;5.220;2022-07-23T03:37:07;10.68;;;6.63;;
65706;SDS011;52423;43.512;5.220;2022-07-23T03:39:33;10.30;;;5.85;;
65706;SDS011;52423;43.512;5.220;2022-07-23T03:41:58;9.43;;;6.30;;
65706;SDS011;52423;43.512;5.220;2022-07-23T03:44:24;10.50;;;6.00;;
65706;SDS011;52423;43.512;5.220;2022-07-23T03:46:50;12.50;;;6.50;;
65706;SDS011;52423;43.512;5.220;2022-07-23T03:49:15;11.20;;;6.22;;
65706;SDS011;52423;43.512;5.220;2022-07-23T03:51:41;18.15;;;6.75;;
65706;SDS011;52423;43.512;5.220;2022-07-23T03:54:07;9.75;;;6.15;;
65706;SDS011;52423;43.512;5.220;2022-07-23T03:56:33;7.85;;;5.90;;
65706;SDS011;52423;43.512;5.220;2022-07-23T03:58:58;8.00;;;6.40;;
65706;SDS011;52423;43.512;5.220;2022-07-23T04:01:24;12.20;;;6.20;;
65706;SDS011;52423;43.512;5.220;2022-07-23T04:03:49;14.65;;;6.70;;
65706;SDS011;52423;43.512;5.220;2022-07-23T04:06:15;12.88;;;7.15;;
65706;SDS011;52423;43.512;5.220;2022-07-23T04:08:41;17.88;;;6.55;;
65706;SDS011;52423;43.512;5.220;2022-07-23T04:11:07;7.43;;;6.10;;
65706;SDS011;52423;43.512;5.220;2022-07-23T04:13:33;8.57;;;6.57;;
65706;SDS011;52423;43.512;5.220;2022-07-23T04:16:18;13.43;;;6.80;;
65706;SDS011;52423;43.512;5.220;2022-07-23T04:19:04;9.95;;;6.25;;
65706;SDS011;52423;43.512;5.220;2022-07-23T04:21:49;10.98;;;6.07;;
65706;SDS011;52423;43.512;5.220;2022-07-23T04:24:34;14.38;;;6.97;;
65706;SDS011;52423;43.512;5.220;2022-07-23T04:27:20;11.07;;;6.20;;
65706;SDS011;52423;43.512;5.220;2022-07-23T04:30:05;13.82;;;6.63;;
65706;SDS011;52423;43.512;5.220;2022-07-23T04:32:51;8.65;;;6.30;;
65706;SDS011;52423;43.512;5.220;2022-07-23T04:35:17;9.73;;;6.57;;
65706;SDS011;52423;43.512;5.220;2022-07-23T04:37:43;16.33;;;6.53;;
65706;SDS011;52423;43.512;5.220;2022-07-23T04:40:09;10.93;;;6.30;;
65706;SDS011;52423;43.512;5.220;2022-07-23T04:42:36;9.38;;;5.97;;
65706;SDS011;52423;43.512;5.220;2022-07-23T04:45:02;7.68;;;6.50;;
65706;SDS011;52423;43.512;5.220;2022-07-23T04:47:29;9.95;;;6.40;;
65706;SDS011;52423;43.512;5.220;2022-07-23T04:49:56;13.27;;;6.22;;
65706;SDS011;52423;43.512;5.220;2022-07-23T04:52:22;10.40;;;6.40;;
65706;SDS011;52423;43.512;5.220;2022-07-23T04:54:48;10.68;;;7.15;;
65706;SDS011;52423;43.512;5.220;2022-07-23T04:57:14;11.35;;;7.30;;
65706;SDS011;52423;43.512;5.220;2022-07-23T04:59:39;10.45;;;6.50;;
65706;SDS011;52423;43.512;5.220;2022-07-23T05:02:05;14.93;;;6.13;;
65706;SDS011;52423;43.512;5.220;2022-07-23T05:04:31;11.32;;;6.20;;
65706;SDS011;52423;43.512;5.220;2022-07-23T05:06:57;13.43;;;6.88;;
65706;SDS011;52423;43.512;5.220;2022-07-23T05:09:23;14.95;;;6.60;;
65706;SDS011;52423;43.512;5.220;2022-07-23T05:11:49;17.38;;;6.55;;
65706;SDS011;52423;43.512;5.220;2022-07-23T05:14:15;10.48;;;6.35;;
65706;SDS011;52423;43.512;5.220;2022-07-23T05:16:40;16.25;;;6.43;;
65706;SDS011;52423;43.512;5.220;2022-07-23T05:19:06;11.68;;;6.28;;
65706;SDS011;52423;43.512;5.220;2022-07-23T05:21:32;9.88;;;6.63;;
65706;SDS011;52423;43.512;5.220;2022-07-23T05:23:58;15.13;;;6.38;;
65706;SDS011;52423;43.512;5.220;2022-07-23T05:26:24;11.30;;;6.00;;
65706;SDS011;52423;43.512;5.220;2022-07-23T05:28:50;10.73;;;6.05;;
65706;SDS011;52423;43.512;5.220;2022-07-23T05:31:17;11.80;;;5.93;;
65706;SDS011;52423;43.512;5.220;2022-07-23T05:33:42;19.35;;;6.78;;
65706;SDS011;52423;43.512;5.220;2022-07-23T05:36:09;8.52;;;6.38;;
65706;SDS011;52423;43.512;5.220;2022-07-23T05:38:35;11.68;;;6.22;;
65706;SDS011;52423;43.512;5.220;2022-07-23T05:41:00;11.63;;;5.82;;
65706;SDS011;52423;43.512;5.220;2022-07-23T05:43:26;7.57;;;5.50;;
65706;SDS011;52423;43.512;5.220;2022-07-23T05:45:52;14.55;;;6.50;;
65706;SDS011;52423;43.512;5.220;2022-07-23T05:48:19;16.35;;;6.00;;
65706;SDS011;52423;43.512;5.220;2022-07-23T05:50:46;11.20;;;5.50;;
65706;SDS011;52423;43.512;5.220;2022-07-23T05:53:12;11.98;;;6.35;;
65706;SDS011;52423;43.512;5.220;2022-07-23T05:55:38;14.27;;;6.90;;
65706;SDS011;52423;43.512;5.220;2022-07-23T05:58:03;16.45;;;6.20;;
65706;SDS011;52423;43.512;5.220;2022-07-23T06:00:29;17.48;;;6.28;;
65706;SDS011;52423;43.512;5.220;2022-07-23T06:02:56;14.98;;;6.38;;
65706;SDS011;52423;43.512;5.220;2022-07-23T06:05:22;11.45;;;6.28;;
65706;SDS011;52423;43.512;5.220;2022-07-23T06:07:48;13.60;;;6.75;;
65706;SDS011;52423;43.512;5.220;2022-07-23T06:10:13;11.43;;;6.25;;
65706;SDS011;52423;43.512;5.220;2022-07-23T06:12:39;17.63;;;6.78;;
65706;SDS011;52423;43.512;5.220;2022-07-23T06:15:05;10.98;;;6.70;;
65706;SDS011;52423;43.512;5.220;2022-07-23T06:17:31;12.15;;;6.43;;
65706;SDS011;52423;43.512;5.220;2022-07-23T06:19:57;10.75;;;6.57;;
65706;SDS011;52423;43.512;5.220;2022-07-23T06:22:22;16.48;;;6.63;;
65706;SDS011;52423;43.512;5.220;2022-07-23T06:24:48;15.65;;;6.53;;
65706;SDS011;52423;43.512;5.220;2022-07-23T06:27:16;27.92;;;6.78;;
65706;SDS011;52423;43.512;5.220;2022-07-23T06:29:41;18.35;;;6.93;;
65706;SDS011;52423;43.512;5.220;2022-07-23T06:32:07;12.57;;;6.53;;
65706;SDS011;52423;43.512;5.220;2022-07-23T06:34:33;11.23;;;6.00;;
65706;SDS011;52423;43.512;5.220;2022-07-23T06:36:59;10.82;;;5.75;;
65706;SDS011;52423;43.512;5.220;2022-07-23T06:39:26;12.98;;;6.32;;
65706;SDS011;52423;43.512;5.220;2022-07-23T06:41:51;9.30;;;5.60;;
65706;SDS011;52423;43.512;5.220;2022-07-23T06:44:17;17.45;;;6.18;;
65706;SDS011;52423;43.512;5.220;2022-07-23T06:46:44;12.25;;;5.90;;
65706;SDS011;52423;43.512;5.220;2022-07-23T06:49:10;13.93;;;5.25;;
65706;SDS011;52423;43.512;5.220;2022-07-23T06:51:36;6.85;;;5.53;;
65706;SDS011;52423;43.512;5.220;2022-07-23T06:54:02;12.32;;;6.20;;
65706;SDS011;52423;43.512;5.220;2022-07-23T06:56:28;10.88;;;5.85;;
65706;SDS011;52423;43.512;5.220;2022-07-23T06:58:54;8.10;;;5.38;;
65706;SDS011;52423;43.512;5.220;2022-07-23T07:01:20;9.60;;;5.75;;
65706;SDS011;52423;43.512;5.220;2022-07-23T07:03:46;11.05;;;5.32;;
65706;SDS011;52423;43.512;5.220;2022-07-23T07:06:13;10.68;;;5.18;;
65706;SDS011;52423;43.512;5.220;2022-07-23T07:08:38;8.27;;;5.47;;
65706;SDS011;52423;43.512;5.220;2022-07-23T07:11:04;8.32;;;5.65;;
65706;SDS011;52423;43.512;5.220;2022-07-23T07:13:30;8.93;;;5.60;;
65706;SDS011;52423;43.512;5.220;2022-07-23T07:15:56;11.68;;;5.97;;
65706;SDS011;52423;43.512;5.220;2022-07-23T07:18:22;12.88;;;5.80;;
65706;SDS011;52423;43.512;5.220;2022-07-23T07:20:48;10.35;;;5.95;;
65706;SDS011;52423;43.512;5.220;2022-07-23T07:23:14;11.30;;;6.18;;
65706;SDS011;52423;43.512;5.220;2022-07-23T07:25:40;10.30;;;5.85;;
65706;SDS011;52423;43.512;5.220;2022-07-23T07:28:05;20.02;;;5.97;;
65706;SDS011;52423;43.512;5.220;2022-07-23T07:30:31;11.77;;;6.50;;
65706;SDS011;52423;43.512;5.220;2022-07-23T07:32:57;16.15;;;6.60;;
65706;SDS011;52423;43.512;5.220;2022-07-23T07:35:23;19.85;;;6.60;;
65706;SDS011;52423;43.512;5.220;2022-07-23T07:37:49;9.55;;;6.45;;
65706;SDS011;52423;43.512;5.220;2022-07-23T07:40:14;13.43;;;6.50;;
65706;SDS011;52423;43.512;5.220;2022-07-23T07:42:46;12.00;;;6.00;;
65706;SDS011;52423;43.512;5.220;2022-07-23T07:45:13;17.50;;;6.90;;
65706;SDS011;52423;43.512;5.220;2022-07-23T07:47:39;13.32;;;6.80;;
65706;SDS011;52423;43.512;5.220;2022-07-23T07:50:04;16.17;;;6.47;;
65706;SDS011;52423;43.512;5.220;2022-07-23T07:52:31;11.07;;;6.93;;
65706;SDS011;52423;43.512;5.220;2022-07-23T07:54:56;11.45;;;6.25;;
65706;SDS011;52423;43.512;5.220;2022-07-23T07:57:22;12.88;;;6.82;;
65706;SDS011;52423;43.512;5.220;2022-07-23T07:59:48;12.20;;;6.68;;
65706;SDS011;52423;43.512;5.220;2022-07-23T08:02:13;11.90;;;6.60;;
65706;SDS011;52423;43.512;5.220;2022-07-23T08:04:39;9.32;;;6.53;;
65706;SDS011;52423;43.512;5.220;2022-07-23T08:07:04;17.60;;;6.95;;
65706;SDS011;52423;43.512;5.220;2022-07-23T08:09:30;15.20;;;7.25;;
65706;SDS011;52423;43.512;5.220;2022-07-23T08:11:56;18.70;;;6.80;;
65706;SDS011;52423;43.512;5.220;2022-07-23T08:14:21;11.32;;;6.88;;
65706;SDS011;52423;43.512;5.220;2022-07-23T08:16:47;12.48;;;6.75;;
65706;SDS011;52423;43.512;5.220;2022-07-23T08:19:12;11.27;;;6.95;;
65706;SDS011;52423;43.512;5.220;2022-07-23T08:21:38;12.10;;;6.75;;
65706;SDS011;52423;43.512;5.220;2022-07-23T08:24:04;10.82;;;6.60;;
65706;SDS011;52423;43.512;5.220;2022-07-23T08:26:30;11.10;;;6.60;;
65706;SDS011;52423;43.512;5.220;2022-07-23T08:28:55;13.80;;;6.35;;
65706;SDS011;52423;43.512;5.220;2022-07-23T08:31:21;18.77;;;7.15;;
65706;SDS011;52423;43.512;5.220;2022-07-23T08:33:47;11.35;;;6.43;;
65706;SDS011;52423;43.512;5.220;2022-07-23T08:36:13;16.27;;;7.20;;
65706;SDS011;52423;43.512;5.220;2022-07-23T08:38:38;11.85;;;6.50;;
65706;SDS011;52423;43.512;5.220;2022-07-23T08:41:04;10.90;;;6.28;;
65706;SDS011;52423;43.512;5.220;2022-07-23T08:43:32;22.30;;;7.30;;
65706;SDS011;52423;43.512;5.220;2022-07-23T08:46:01;11.75;;;7.28;;
65706;SDS011;52423;43.512;5.220;2022-07-23T08:48:31;20.48;;;7.15;;
65706;SDS011;52423;43.512;5.220;2022-07-23T08:51:00;13.00;;;6.90;;
65706;SDS011;52423;43.512;5.220;2022-07-23T08:53:28;10.90;;;6.30;;
65706;SDS011;52423;43.512;5.220;2022-07-23T08:55:55;14.88;;;6.88;;
65706;SDS011;52423;43.512;5.220;2022-07-23T08:58:24;16.63;;;6.50;;
65706;SDS011;52423;43.512;5.220;2022-07-23T09:00:50;9.70;;;6.53;;
65706;SDS011;52423;43.512;5.220;2022-07-23T09:03:18;19.05;;;7.15;;
65706;SDS011;52423;43.512;5.220;2022-07-23T09:05:45;11.77;;;6.70;;
65706;SDS011;52423;43.512;5.220;2022-07-23T09:08:15;15.20;;;6.45;;
65706;SDS011;52423;43.512;5.220;2022-07-23T09:13:25;11.38;;;6.65;;
65706;SDS011;52423;43.512;5.220;2022-07-23T09:15:51;10.93;;;6.80;;
65706;SDS011;52423;43.512;5.220;2022-07-23T09:18:18;17.35;;;7.78;;
65706;SDS011;52423;43.512;5.220;2022-07-23T09:20:44;15.32;;;7.50;;
65706;SDS011;52423;43.512;5.220;2022-07-23T09:23:10;17.48;;;6.90;;
65706;SDS011;52423;43.512;5.220;2022-07-23T09:25:36;11.82;;;7.50;;
65706;SDS011;52423;43.512;5.220;2022-07-23T09:28:01;12.30;;;7.80;;
65706;SDS011;52423;43.512;5.220;2022-07-23T09:30:31;13.18;;;7.28;;
65706;SDS011;52423;43.512;5.220;2022-07-23T09:33:12;11.57;;;7.65;;
65706;SDS011;52423;43.512;5.220;2022-07-23T09:35:55;15.87;;;7.40;;
65706;SDS011;52423;43.512;5.220;2022-07-23T09:38:22;11.05;;;7.35;;
65706;SDS011;52423;43.512;5.220;2022-07-23T09:43:35;13.10;;;7.10;;
65706;SDS011;52423;43.512;5.220;2022-07-23T09:46:17;13.55;;;7.93;;
65706;SDS011;52423;43.512;5.220;2022-07-23T09:48:51;14.30;;;7.57;;
65706;SDS011;52423;43.512;5.220;2022-07-23T09:51:22;12.90;;;7.40;;
65706;SDS011;52423;43.512;5.220;2022-07-23T09:53:59;10.57;;;7.47;;
65706;SDS011;52423;43.512;5.220;2022-07-23T09:56:24;12.27;;;7.65;;
65706;SDS011;52423;43.512;5.220;2022-07-23T09:58:52;13.15;;;7.50;;
65706;SDS011;52423;43.512;5.220;2022-07-23T10:01:52;12.52;;;7.60;;
65706;SDS011;52423;43.512;5.220;2022-07-23T10:04:20;14.57;;;6.70;;
65706;SDS011;52423;43.512;5.220;2022-07-23T10:06:47;10.65;;;7.63;;
65706;SDS011;52423;43.512;5.220;2022-07-23T10:09:17;12.10;;;7.45;;
65706;SDS011;52423;43.512;5.220;2022-07-23T10:11:48;10.75;;;7.45;;
65706;SDS011;52423;43.512;5.220;2022-07-23T10:14:15;11.70;;;6.65;;
65706;SDS011;52423;43.512;5.220;2022-07-23T10:16:41;16.10;;;6.68;;
65706;SDS011;52423;43.512;5.220;2022-07-23T10:19:08;11.95;;;7.45;;
65706;SDS011;52423;43.512;5.220;2022-07-23T10:21:37;14.05;;;7.20;;
65706;SDS011;52423;43.512;5.220;2022-07-23T10:24:14;14.02;;;8.00;;
65706;SDS011;52423;43.512;5.220;2022-07-23T10:35:18;12.13;;;7.30;;
65706;SDS011;52423;43.512;5.220;2022-07-23T10:37:48;19.55;;;7.25;;
65706;SDS011;52423;43.512;5.220;2022-07-23T10:40:17;13.90;;;7.55;;
65706;SDS011;52423;43.512;5.220;2022-07-23T10:42:46;16.98;;;7.60;;
65706;SDS011;52423;43.512;5.220;2022-07-23T10:45:22;15.15;;;7.15;;
65706;SDS011;52423;43.512;5.220;2022-07-23T10:47:54;7.60;;;6.47;;
65706;SDS011;52423;43.512;5.220;2022-07-23T10:50:26;13.02;;;7.30;;
65706;SDS011;52423;43.512;5.220;2022-07-23T10:55:39;16.55;;;7.80;;
65706;SDS011;52423;43.512;5.220;2022-07-23T10:58:20;14.52;;;7.47;;
65706;SDS011;52423;43.512;5.220;2022-07-23T11:01:32;13.63;;;7.72;;
65706;SDS011;52423;43.512;5.220;2022-07-23T11:04:00;16.15;;;8.05;;
65706;SDS011;52423;43.512;5.220;2022-07-23T11:09:24;14.68;;;6.90;;
65706;SDS011;52423;43.512;5.220;2022-07-23T11:20:19;15.57;;;7.07;;
65706;SDS011;52423;43.512;5.220;2022-07-23T11:22:48;10.18;;;6.97;;
65706;SDS011;52423;43.512;5.220;2022-07-23T11:27:48;11.40;;;6.97;;
65706;SDS011;52423;43.512;5.220;2022-07-23T11:32:51;10.32;;;7.05;;
65706;SDS011;52423;43.512;5.220;2022-07-23T11:35:18;14.35;;;6.95;;
65706;SDS011;52423;43.512;5.220;2022-07-23T11:37:44;12.07;;;7.15;;
65706;SDS011;52423;43.512;5.220;2022-07-23T11:40:12;9.75;;;6.47;;
65706;SDS011;52423;43.512;5.220;2022-07-23T11:42:50;10.77;;;6.35;;
65706;SDS011;52423;43.512;5.220;2022-07-23T11:45:18;8.25;;;6.32;;
65706;SDS011;52423;43.512;5.220;2022-07-23T11:47:43;14.05;;;6.53;;
65706;SDS011;52423;43.512;5.220;2022-07-23T11:50:09;11.98;;;6.22;;
65706;SDS011;52423;43.512;5.220;2022-07-23T11:52:35;10.75;;;5.72;;
65706;SDS011;52423;43.512;5.220;2022-07-23T11:55:05;11.88;;;6.38;;
65706;SDS011;52423;43.512;5.220;2022-07-23T11:57:33;7.03;;;6.32;;
65706;SDS011;52423;43.512;5.220;2022-07-23T12:02:33;16.35;;;7.35;;
65706;SDS011;52423;43.512;5.220;2022-07-23T12:04:59;12.43;;;7.35;;
65706;SDS011;52423;43.512;5.220;2022-07-23T12:07:29;11.75;;;6.50;;
65706;SDS011;52423;43.512;5.220;2022-07-23T12:09:57;11.30;;;6.50;;
65706;SDS011;52423;43.512;5.220;2022-07-23T12:12:24;9.00;;;6.32;;
65706;SDS011;52423;43.512;5.220;2022-07-23T12:14:55;13.80;;;7.13;;
65706;SDS011;52423;43.512;5.220;2022-07-23T12:17:29;15.90;;;8.30;;
65706;SDS011;52423;43.512;5.220;2022-07-23T12:19:59;11.38;;;7.28;;
65706;SDS011;52423;43.512;5.220;2022-07-23T12:22:34;14.90;;;6.95;;
65706;SDS011;52423;43.512;5.220;2022-07-23T12:25:11;8.77;;;7.03;;
65706;SDS011;52423;43.512;5.220;2022-07-23T12:27:38;12.65;;;6.97;;
65706;SDS011;52423;43.512;5.220;2022-07-23T12:32:48;10.93;;;6.20;;
65706;SDS011;52423;43.512;5.220;2022-07-23T12:35:15;15.38;;;6.68;;
65706;SDS011;52423;43.512;5.220;2022-07-23T12:37:42;11.07;;;6.45;;
65706;SDS011;52423;43.512;5.220;2022-07-23T12:45:29;9.70;;;5.72;;
65706;SDS011;52423;43.512;5.220;2022-07-23T12:48:15;7.43;;;5.28;;
65706;SDS011;52423;43.512;5.220;2022-07-23T12:50:44;10.20;;;5.40;;
65706;SDS011;52423;43.512;5.220;2022-07-23T12:55:56;13.73;;;5.70;;
65706;SDS011;52423;43.512;5.220;2022-07-23T12:58:38;12.88;;;5.85;;
65706;SDS011;52423;43.512;5.220;2022-07-23T13:01:06;10.93;;;5.50;;
65706;SDS011;52423;43.512;5.220;2022-07-23T13:03:36;13.70;;;6.18;;
65706;SDS011;52423;43.512;5.220;2022-07-23T13:06:09;11.75;;;5.65;;
65706;SDS011;52423;43.512;5.220;2022-07-23T13:08:38;12.68;;;5.75;;
65706;SDS011;52423;43.512;5.220;2022-07-23T13:11:05;12.07;;;5.32;;
65706;SDS011;52423;43.512;5.220;2022-07-23T13:13:32;10.77;;;5.30;;
65706;SDS011;52423;43.512;5.220;2022-07-23T13:16:00;16.38;;;6.10;;
65706;SDS011;52423;43.512;5.220;2022-07-23T13:18:26;10.85;;;5.70;;
65706;SDS011;52423;43.512;5.220;2022-07-23T13:20:53;10.38;;;5.57;;
65706;SDS011;52423;43.512;5.220;2022-07-23T13:23:19;13.60;;;6.25;;
65706;SDS011;52423;43.512;5.220;2022-07-23T13:25:45;9.25;;;5.60;;
65706;SDS011;52423;43.512;5.220;2022-07-23T13:28:12;10.05;;;5.65;;
65706;SDS011;52423;43.512;5.220;2022-07-23T13:30:39;8.95;;;5.63;;
65706;SDS011;52423;43.512;5.220;2022-07-23T13:33:06;14.63;;;5.88;;
65706;SDS011;52423;43.512;5.220;2022-07-23T13:35:33;9.20;;;5.38;;
65706;SDS011;52423;43.512;5.220;2022-07-23T13:37:59;9.63;;;4.50;;
65706;SDS011;52423;43.512;5.220;2022-07-23T13:40:25;7.35;;;5.00;;
65706;SDS011;52423;43.512;5.220;2022-07-23T13:42:51;12.00;;;5.15;;
65706;SDS011;52423;43.512;5.220;2022-07-23T13:45:17;10.48;;;5.22;;
65706;SDS011;52423;43.512;5.220;2022-07-23T13:47:43;9.77;;;5.32;;
65706;SDS011;52423;43.512;5.220;2022-07-23T13:50:08;14.40;;;5.43;;
65706;SDS011;52423;43.512;5.220;2022-07-23T13:52:34;10.85;;;5.15;;
65706;SDS011;52423;43.512;5.220;2022-07-23T13:55:01;6.32;;;4.75;;
65706;SDS011;52423;43.512;5.220;2022-07-23T13:57:29;8.60;;;5.72;;
65706;SDS011;52423;43.512;5.220;2022-07-23T13:59:56;10.00;;;5.20;;
65706;SDS011;52423;43.512;5.220;2022-07-23T14:02:21;9.90;;;5.15;;
65706;SDS011;52423;43.512;5.220;2022-07-23T14:04:47;10.02;;;5.65;;
65706;SDS011;52423;43.512;5.220;2022-07-23T14:07:13;9.80;;;5.60;;
65706;SDS011;52423;43.512;5.220;2022-07-23T14:09:39;9.82;;;5.60;;
65706;SDS011;52423;43.512;5.220;2022-07-23T14:12:05;8.32;;;5.63;;
65706;SDS011;52423;43.512;5.220;2022-07-23T14:14:31;12.60;;;5.60;;
65706;SDS011;52423;43.512;5.220;2022-07-23T14:16:57;8.73;;;5.57;;
65706;SDS011;52423;43.512;5.220;2022-07-23T14:19:22;21.95;;;5.63;;
65706;SDS011;52423;43.512;5.220;2022-07-23T14:21:48;12.63;;;5.85;;
65706;SDS011;52423;43.512;5.220;2022-07-23T14:24:14;13.40;;;5.88;;
65706;SDS011;52423;43.512;5.220;2022-07-23T14:26:40;8.95;;;5.80;;
65706;SDS011;52423;43.512;5.220;2022-07-23T14:29:07;11.63;;;5.07;;
65706;SDS011;52423;43.512;5.220;2022-07-23T14:31:32;11.65;;;5.18;;
65706;SDS011;52423;43.512;5.220;2022-07-23T14:33:58;10.18;;;5.30;;
65706;SDS011;52423;43.512;5.220;2022-07-23T14:36:24;6.15;;;4.97;;
65706;SDS011;52423;43.512;5.220;2022-07-23T14:38:50;5.20;;;4.72;;
65706;SDS011;52423;43.512;5.220;2022-07-23T14:41:16;7.30;;;5.30;;
65706;SDS011;52423;43.512;5.220;2022-07-23T14:43:42;6.20;;;5.07;;
65706;SDS011;52423;43.512;5.220;2022-07-23T14:46:08;9.27;;;5.72;;
65706;SDS011;52423;43.512;5.220;2022-07-23T14:48:34;8.45;;;5.47;;
65706;SDS011;52423;43.512;5.220;2022-07-23T14:51:02;9.18;;;5.10;;
65706;SDS011;52423;43.512;5.220;2022-07-23T14:53:28;10.27;;;5.25;;
65706;SDS011;52423;43.512;5.220;2022-07-23T14:55:53;9.63;;;4.90;;
65706;SDS011;52423;43.512;5.220;2022-07-23T14:58:21;7.65;;;4.68;;
65706;SDS011;52423;43.512;5.220;2022-07-23T15:00:46;5.60;;;4.38;;
65706;SDS011;52423;43.512;5.220;2022-07-23T15:03:12;8.50;;;5.20;;
65706;SDS011;52423;43.512;5.220;2022-07-23T15:05:37;8.18;;;4.82;;
65706;SDS011;52423;43.512;5.220;2022-07-23T15:08:03;10.75;;;5.25;;
65706;SDS011;52423;43.512;5.220;2022-07-23T15:10:29;6.35;;;4.40;;
65706;SDS011;52423;43.512;5.220;2022-07-23T15:12:55;8.93;;;5.30;;
65706;SDS011;52423;43.512;5.220;2022-07-23T15:15:20;13.07;;;5.45;;
65706;SDS011;52423;43.512;5.220;2022-07-23T15:17:46;9.35;;;5.15;;
65706;SDS011;52423;43.512;5.220;2022-07-23T15:20:12;13.50;;;5.38;;
65706;SDS011;52423;43.512;5.220;2022-07-23T15:22:38;8.70;;;4.80;;
65706;SDS011;52423;43.512;5.220;2022-07-23T15:25:04;5.57;;;4.85;;